sensor_id;sensor_type;location;lat;lon;timestamp;pressure;altitude;pressure_sealevel;temperature;humidity
65384;BME280;51986;52.788;41.368;2023-04-24T00:01:15;99482.34;;;12.57;38.28
65384;BME280;51986;52.788;41.368;2023-04-24T00:03:42;99491.56;;;12.45;39.74
65384;BME280;51986;52.788;41.368;2023-04-24T00:06:09;99499.44;;;12.22;39.95
65384;BME280;51986;52.788;41.368;2023-04-24T00:08:36;99480.94;;;12.22;39.76
65384;BME280;51986;52.788;41.368;2023-04-24T00:11:03;99478.19;;;12.29;39.86
65384;BME280;51986;52.788;41.368;2023-04-24T00:13:30;99493.47;;;12.14;39.66
65384;BME280;51986;52.788;41.368;2023-04-24T00:15:57;99472.69;;;12.16;37.40
65384;BME280;51986;52.788;41.368;2023-04-24T00:18:24;99485.41;;;12.25;39.67
65384;BME280;51986;52.788;41.368;2023-04-24T00:20:51;99475.91;;;12.31;38.55
65384;BME280;51986;52.788;41.368;2023-04-24T00:23:18;99493.13;;;12.43;37.80
65384;BME280;51986;52.788;41.368;2023-04-24T00:25:45;99500.56;;;12.51;37.97
65384;BME280;51986;52.788;41.368;2023-04-24T00:28:12;99486.09;;;12.59;37.68
65384;BME280;51986;52.788;41.368;2023-04-24T00:30:39;99474.00;;;12.58;38.36
65384;BME280;51986;52.788;41.368;2023-04-24T00:33:06;99492.09;;;12.64;37.66
65384;BME280;51986;52.788;41.368;2023-04-24T00:35:33;99476.94;;;12.64;38.45
65384;BME280;51986;52.788;41.368;2023-04-24T00:38:00;99493.81;;;12.74;38.25
65384;BME280;51986;52.788;41.368;2023-04-24T00:40:28;99493.88;;;12.70;37.58
65384;BME280;51986;52.788;41.368;2023-04-24T00:42:55;99491.50;;;12.76;37.65
65384;BME280;51986;52.788;41.368;2023-04-24T00:45:22;99470.25;;;12.83;37.37
65384;BME280;51986;52.788;41.368;2023-04-24T00:47:51;99477.72;;;12.88;37.42
65384;BME280;51986;52.788;41.368;2023-04-24T00:50:20;99446.94;;;12.74;36.42
65384;BME280;51986;52.788;41.368;2023-04-24T00:52:48;99466.41;;;12.87;36.78
65384;BME280;51986;52.788;41.368;2023-04-24T00:55:15;99481.88;;;12.89;37.02
65384;BME280;51986;52.788;41.368;2023-04-24T00:57:43;99465.41;;;12.78;37.53
65384;BME280;51986;52.788;41.368;2023-04-24T01:00:11;99467.34;;;12.74;37.10
65384;BME280;51986;52.788;41.368;2023-04-24T01:02:39;99471.56;;;12.95;37.39
65384;BME280;51986;52.788;41.368;2023-04-24T01:05:07;99470.03;;;12.97;37.12
65384;BME280;51986;52.788;41.368;2023-04-24T01:07:35;99462.88;;;12.94;37.41
65384;BME280;51986;52.788;41.368;2023-04-24T01:10:03;99439.16;;;12.87;36.88
65384;BME280;51986;52.788;41.368;2023-04-24T01:12:30;99485.22;;;12.93;37.64
65384;BME280;51986;52.788;41.368;2023-04-24T01:14:57;99468.16;;;12.71;38.48
65384;BME280;51986;52.788;41.368;2023-04-24T01:17:24;99477.25;;;12.70;38.30
65384;BME280;51986;52.788;41.368;2023-04-24T01:19:53;99464.25;;;12.79;38.30
65384;BME280;51986;52.788;41.368;2023-04-24T01:22:20;99451.19;;;12.68;37.43
65384;BME280;51986;52.788;41.368;2023-04-24T01:24:47;99459.06;;;12.72;37.68
65384;BME280;51986;52.788;41.368;2023-04-24T01:27:14;99479.88;;;12.70;37.82
65384;BME280;51986;52.788;41.368;2023-04-24T01:29:44;99520.19;;;12.81;37.51
65384;BME280;51986;52.788;41.368;2023-04-24T01:32:12;99464.75;;;12.70;37.72
65384;BME280;51986;52.788;41.368;2023-04-24T01:34:40;99477.28;;;12.66;38.26
65384;BME280;51986;52.788;41.368;2023-04-24T01:37:07;99466.94;;;12.48;38.22
65384;BME280;51986;52.788;41.368;2023-04-24T01:39:34;99483.38;;;12.63;38.44
65384;BME280;51986;52.788;41.368;2023-04-24T01:42:01;99448.34;;;12.55;38.34
65384;BME280;51986;52.788;41.368;2023-04-24T01:44:28;99457.72;;;12.60;37.47
65384;BME280;51986;52.788;41.368;2023-04-24T01:46:55;99464.56;;;12.57;37.39
65384;BME280;51986;52.788;41.368;2023-04-24T01:49:23;99405.03;;;12.19;37.97
65384;BME280;51986;52.788;41.368;2023-04-24T01:51:50;99448.50;;;12.45;38.16
65384;BME280;51986;52.788;41.368;2023-04-24T01:54:17;99466.22;;;12.21;38.68
65384;BME280;51986;52.788;41.368;2023-04-24T01:56:44;99473.00;;;12.22;39.26
65384;BME280;51986;52.788;41.368;2023-04-24T01:59:12;99480.94;;;12.22;38.71
65384;BME280;51986;52.788;41.368;2023-04-24T02:01:39;99482.41;;;12.23;38.63
65384;BME280;51986;52.788;41.368;2023-04-24T02:04:07;99464.09;;;12.08;38.62
65384;BME280;51986;52.788;41.368;2023-04-24T02:06:35;99477.66;;;12.10;38.93
65384;BME280;51986;52.788;41.368;2023-04-24T02:09:02;99464.25;;;11.94;38.87
65384;BME280;51986;52.788;41.368;2023-04-24T02:11:29;99470.22;;;12.02;39.21
65384;BME280;51986;52.788;41.368;2023-04-24T02:13:57;99482.59;;;12.08;38.97
65384;BME280;51986;52.788;41.368;2023-04-24T02:16:24;99460.13;;;11.93;38.57
65384;BME280;51986;52.788;41.368;2023-04-24T02:18:51;99486.34;;;12.11;38.88
65384;BME280;51986;52.788;41.368;2023-04-24T02:21:18;99497.63;;;11.81;40.09
65384;BME280;51986;52.788;41.368;2023-04-24T02:23:45;99498.50;;;11.67;40.42
65384;BME280;51986;52.788;41.368;2023-04-24T02:26:12;99496.22;;;11.73;40.22
65384;BME280;51986;52.788;41.368;2023-04-24T02:28:39;99492.34;;;11.81;40.08
65384;BME280;51986;52.788;41.368;2023-04-24T02:31:07;99492.00;;;11.79;39.81
65384;BME280;51986;52.788;41.368;2023-04-24T02:33:33;99490.63;;;12.01;39.47
65384;BME280;51986;52.788;41.368;2023-04-24T02:36:01;99486.00;;;11.75;39.46
65384;BME280;51986;52.788;41.368;2023-04-24T02:38:29;99499.16;;;12.13;39.08
65384;BME280;51986;52.788;41.368;2023-04-24T02:40:56;99501.63;;;12.27;39.39
65384;BME280;51986;52.788;41.368;2023-04-24T02:43:25;99530.72;;;12.27;38.95
65384;BME280;51986;52.788;41.368;2023-04-24T02:45:52;99504.84;;;12.42;38.50
65384;BME280;51986;52.788;41.368;2023-04-24T02:48:19;99509.38;;;12.41;38.61
65384;BME280;51986;52.788;41.368;2023-04-24T02:50:46;99459.22;;;12.34;39.02
65384;BME280;51986;52.788;41.368;2023-04-24T02:53:13;99519.03;;;12.55;38.76
65384;BME280;51986;52.788;41.368;2023-04-24T02:55:40;99537.13;;;12.60;39.75
65384;BME280;51986;52.788;41.368;2023-04-24T02:58:07;99505.56;;;12.46;39.01
65384;BME280;51986;52.788;41.368;2023-04-24T03:00:34;99496.56;;;12.40;38.57
65384;BME280;51986;52.788;41.368;2023-04-24T03:03:01;99536.38;;;12.59;39.29
65384;BME280;51986;52.788;41.368;2023-04-24T03:05:28;99518.88;;;12.66;39.18
65384;BME280;51986;52.788;41.368;2023-04-24T03:07:55;99515.00;;;12.74;39.14
65384;BME280;51986;52.788;41.368;2023-04-24T03:10:22;99536.91;;;12.74;37.77
65384;BME280;51986;52.788;41.368;2023-04-24T03:12:49;99536.22;;;12.70;38.63
65384;BME280;51986;52.788;41.368;2023-04-24T03:15:18;99524.91;;;12.39;39.11
65384;BME280;51986;52.788;41.368;2023-04-24T03:17:44;99515.53;;;12.61;38.46
65384;BME280;51986;52.788;41.368;2023-04-24T03:20:12;99525.88;;;12.52;38.74
65384;BME280;51986;52.788;41.368;2023-04-24T03:22:39;99536.91;;;12.74;38.34
65384;BME280;51986;52.788;41.368;2023-04-24T03:25:07;99533.72;;;12.59;38.60
65384;BME280;51986;52.788;41.368;2023-04-24T03:27:35;99531.22;;;12.76;38.51
65384;BME280;51986;52.788;41.368;2023-04-24T03:30:07;99534.06;;;12.61;38.37
65384;BME280;51986;52.788;41.368;2023-04-24T03:32:48;99528.91;;;12.51;37.82
65384;BME280;51986;52.788;41.368;2023-04-24T03:35:20;99538.22;;;13.40;36.64
65384;BME280;51986;52.788;41.368;2023-04-24T03:37:49;99535.31;;;13.98;36.37
65384;BME280;51986;52.788;41.368;2023-04-24T03:40:39;99525.53;;;16.07;32.87
65384;BME280;51986;52.788;41.368;2023-04-24T03:43:18;99525.00;;;17.27;30.55
65384;BME280;51986;52.788;41.368;2023-04-24T03:45:45;99537.03;;;17.88;29.04
65384;BME280;51986;52.788;41.368;2023-04-24T03:48:13;99533.25;;;17.54;29.43
65384;BME280;51986;52.788;41.368;2023-04-24T03:50:40;99522.56;;;17.07;30.15
65384;BME280;51986;52.788;41.368;2023-04-24T03:53:10;99517.78;;;17.71;29.81
65384;BME280;51986;52.788;41.368;2023-04-24T03:58:26;99530.91;;;18.00;29.32
65384;BME280;51986;52.788;41.368;2023-04-24T04:00:56;99520.28;;;17.65;29.74
65384;BME280;51986;52.788;41.368;2023-04-24T04:03:39;99518.78;;;18.80;28.07
65384;BME280;51986;52.788;41.368;2023-04-24T04:06:07;99519.88;;;18.51;28.25
65384;BME280;51986;52.788;41.368;2023-04-24T04:08:37;99537.75;;;19.22;26.98
65384;BME280;51986;52.788;41.368;2023-04-24T04:11:08;99556.31;;;20.08;24.82
65384;BME280;51986;52.788;41.368;2023-04-24T04:13:38;99501.94;;;20.68;23.87
65384;BME280;51986;52.788;41.368;2023-04-24T04:16:06;99531.06;;;21.47;23.33
65384;BME280;51986;52.788;41.368;2023-04-24T04:18:33;99531.88;;;22.57;21.64
65384;BME280;51986;52.788;41.368;2023-04-24T04:21:01;99547.81;;;22.96;21.66
65384;BME280;51986;52.788;41.368;2023-04-24T04:23:28;99522.78;;;23.10;20.37
65384;BME280;51986;52.788;41.368;2023-04-24T04:26:07;99547.41;;;23.23;20.73
65384;BME280;51986;52.788;41.368;2023-04-24T04:28:59;99540.16;;;22.89;20.52
65384;BME280;51986;52.788;41.368;2023-04-24T04:31:29;99534.63;;;21.98;22.03
65384;BME280;51986;52.788;41.368;2023-04-24T04:33:59;99535.16;;;21.34;22.90
65384;BME280;51986;52.788;41.368;2023-04-24T04:36:26;99533.72;;;20.85;23.46
65384;BME280;51986;52.788;41.368;2023-04-24T04:39:00;99541.28;;;20.53;24.11
65384;BME280;51986;52.788;41.368;2023-04-24T04:41:54;99536.25;;;20.04;24.48
65384;BME280;51986;52.788;41.368;2023-04-24T04:44:26;99566.44;;;19.86;24.86
65384;BME280;51986;52.788;41.368;2023-04-24T04:46:57;99549.81;;;19.63;25.49
65384;BME280;51986;52.788;41.368;2023-04-24T04:49:27;99550.41;;;19.40;26.16
65384;BME280;51986;52.788;41.368;2023-04-24T04:51:54;99567.78;;;19.35;25.80
65384;BME280;51986;52.788;41.368;2023-04-24T04:54:24;99549.88;;;19.05;26.22
65384;BME280;51986;52.788;41.368;2023-04-24T04:56:51;99558.66;;;19.14;26.26
65384;BME280;51986;52.788;41.368;2023-04-24T04:59:18;99551.09;;;19.04;26.60
65384;BME280;51986;52.788;41.368;2023-04-24T05:01:47;99539.97;;;19.23;26.69
65384;BME280;51986;52.788;41.368;2023-04-24T05:04:15;99542.50;;;19.36;26.95
65384;BME280;51986;52.788;41.368;2023-04-24T05:06:43;99539.69;;;19.86;26.16
65384;BME280;51986;52.788;41.368;2023-04-24T05:09:11;99567.91;;;20.05;26.44
65384;BME280;51986;52.788;41.368;2023-04-24T05:11:44;99557.94;;;20.06;26.81
65384;BME280;51986;52.788;41.368;2023-04-24T05:14:11;99569.69;;;20.17;26.52
65384;BME280;51986;52.788;41.368;2023-04-24T05:16:39;99544.72;;;19.74;27.61
65384;BME280;51986;52.788;41.368;2023-04-24T05:19:08;99567.50;;;19.88;27.41
65384;BME280;51986;52.788;41.368;2023-04-24T05:21:39;99575.97;;;19.96;28.01
65384;BME280;51986;52.788;41.368;2023-04-24T05:24:07;99582.94;;;19.57;28.51
65384;BME280;51986;52.788;41.368;2023-04-24T05:26:45;99558.41;;;19.31;29.18
65384;BME280;51986;52.788;41.368;2023-04-24T05:29:15;99583.09;;;19.44;29.07
65384;BME280;51986;52.788;41.368;2023-04-24T05:31:42;99575.81;;;19.54;29.00
65384;BME280;51986;52.788;41.368;2023-04-24T05:34:09;99557.06;;;19.26;29.78
65384;BME280;51986;52.788;41.368;2023-04-24T05:36:41;99582.63;;;19.36;30.26
65384;BME280;51986;52.788;41.368;2023-04-24T05:39:09;99578.44;;;19.17;30.61
65384;BME280;51986;52.788;41.368;2023-04-24T05:41:36;99569.09;;;18.72;31.51
65384;BME280;51986;52.788;41.368;2023-04-24T05:44:03;99563.22;;;18.95;31.49
65384;BME280;51986;52.788;41.368;2023-04-24T05:46:30;99589.00;;;19.11;31.08
65384;BME280;51986;52.788;41.368;2023-04-24T05:48:57;99580.81;;;19.06;31.49
65384;BME280;51986;52.788;41.368;2023-04-24T05:51:24;99566.13;;;19.10;31.67
65384;BME280;51986;52.788;41.368;2023-04-24T05:53:51;99577.16;;;19.40;31.34
65384;BME280;51986;52.788;41.368;2023-04-24T05:56:19;99580.72;;;19.46;31.25
65384;BME280;51986;52.788;41.368;2023-04-24T05:58:46;99574.91;;;19.66;31.37
65384;BME280;51986;52.788;41.368;2023-04-24T06:01:13;99586.53;;;19.63;31.77
65384;BME280;51986;52.788;41.368;2023-04-24T06:03:42;99590.06;;;19.32;32.41
65384;BME280;51986;52.788;41.368;2023-04-24T06:06:09;99574.16;;;19.47;32.50
65384;BME280;51986;52.788;41.368;2023-04-24T06:08:36;99603.16;;;19.58;32.89
65384;BME280;51986;52.788;41.368;2023-04-24T06:11:04;99590.09;;;19.50;32.87
65384;BME280;51986;52.788;41.368;2023-04-24T06:13:31;99578.66;;;19.77;32.51
65384;BME280;51986;52.788;41.368;2023-04-24T06:16:18;99574.47;;;19.40;32.83
65384;BME280;51986;52.788;41.368;2023-04-24T06:18:53;99591.00;;;19.84;32.12
65384;BME280;51986;52.788;41.368;2023-04-24T06:21:20;99593.06;;;19.80;32.52
65384;BME280;51986;52.788;41.368;2023-04-24T06:23:47;99575.50;;;19.70;32.63
65384;BME280;51986;52.788;41.368;2023-04-24T06:26:14;99556.75;;;19.33;33.09
65384;BME280;51986;52.788;41.368;2023-04-24T06:28:41;99575.19;;;19.31;33.33
65384;BME280;51986;52.788;41.368;2023-04-24T06:31:08;99612.41;;;18.98;33.92
65384;BME280;51986;52.788;41.368;2023-04-24T06:33:35;99611.78;;;18.94;34.15
65384;BME280;51986;52.788;41.368;2023-04-24T06:36:02;99606.78;;;19.05;34.03
65384;BME280;51986;52.788;41.368;2023-04-24T06:38:29;99602.38;;;18.80;34.59
65384;BME280;51986;52.788;41.368;2023-04-24T06:40:56;99595.81;;;19.12;34.02
65384;BME280;51986;52.788;41.368;2023-04-24T06:43:23;99613.94;;;19.08;33.84
65384;BME280;51986;52.788;41.368;2023-04-24T06:45:50;99589.31;;;19.32;32.98
65384;BME280;51986;52.788;41.368;2023-04-24T06:48:17;99582.16;;;19.10;32.55
65384;BME280;51986;52.788;41.368;2023-04-24T06:50:44;99600.88;;;19.19;33.10
65384;BME280;51986;52.788;41.368;2023-04-24T06:53:11;99612.22;;;19.60;31.93
65384;BME280;51986;52.788;41.368;2023-04-24T06:55:38;99584.28;;;19.70;31.57
65384;BME280;51986;52.788;41.368;2023-04-24T06:58:05;99621.47;;;20.05;31.18
65384;BME280;51986;52.788;41.368;2023-04-24T07:00:32;99594.84;;;19.74;30.85
65384;BME280;51986;52.788;41.368;2023-04-24T07:02:59;99587.53;;;19.47;30.65
65384;BME280;51986;52.788;41.368;2023-04-24T07:05:26;99589.00;;;19.20;31.42
65384;BME280;51986;52.788;41.368;2023-04-24T07:07:53;99604.00;;;19.27;31.78
65384;BME280;51986;52.788;41.368;2023-04-24T07:10:20;99585.16;;;19.21;31.32
65384;BME280;51986;52.788;41.368;2023-04-24T07:12:47;99606.34;;;19.07;31.33
65384;BME280;51986;52.788;41.368;2023-04-24T07:15:14;99590.91;;;19.02;31.37
65384;BME280;51986;52.788;41.368;2023-04-24T07:17:41;99592.88;;;18.79;31.86
65384;BME280;51986;52.788;41.368;2023-04-24T07:20:09;99606.22;;;18.79;32.02
65384;BME280;51986;52.788;41.368;2023-04-24T07:22:40;99584.81;;;18.70;31.88
65384;BME280;51986;52.788;41.368;2023-04-24T07:25:07;99595.09;;;18.81;32.01
65384;BME280;51986;52.788;41.368;2023-04-24T07:27:35;99602.81;;;18.79;31.37
65384;BME280;51986;52.788;41.368;2023-04-24T07:30:03;99598.53;;;18.90;31.39
65384;BME280;51986;52.788;41.368;2023-04-24T07:32:33;99599.34;;;18.69;32.14
65384;BME280;51986;52.788;41.368;2023-04-24T07:35:00;99589.91;;;18.77;31.37
65384;BME280;51986;52.788;41.368;2023-04-24T07:37:27;99602.06;;;18.78;31.81
65384;BME280;51986;52.788;41.368;2023-04-24T07:39:57;99592.38;;;18.71;31.60
65384;BME280;51986;52.788;41.368;2023-04-24T07:42:23;99597.75;;;18.81;31.43
65384;BME280;51986;52.788;41.368;2023-04-24T07:44:50;99600.78;;;18.92;31.14
65384;BME280;51986;52.788;41.368;2023-04-24T07:47:17;99629.88;;;18.90;31.00
65384;BME280;51986;52.788;41.368;2023-04-24T07:49:44;99581.09;;;18.67;31.83
65384;BME280;51986;52.788;41.368;2023-04-24T07:52:11;99587.84;;;18.90;31.50
65384;BME280;51986;52.788;41.368;2023-04-24T07:54:38;99608.91;;;19.29;30.87
65384;BME280;51986;52.788;41.368;2023-04-24T07:57:05;99573.44;;;19.56;31.14
65384;BME280;51986;52.788;41.368;2023-04-24T07:59:32;99598.56;;;19.49;31.30
65384;BME280;51986;52.788;41.368;2023-04-24T08:01:59;99591.53;;;19.33;31.65
65384;BME280;51986;52.788;41.368;2023-04-24T08:04:26;99599.22;;;19.13;31.63
65384;BME280;51986;52.788;41.368;2023-04-24T08:06:53;99591.22;;;19.13;31.04
65384;BME280;51986;52.788;41.368;2023-04-24T08:09:20;99584.88;;;19.47;31.08
65384;BME280;51986;52.788;41.368;2023-04-24T08:11:47;99580.41;;;20.17;29.83
65384;BME280;51986;52.788;41.368;2023-04-24T08:14:14;99574.16;;;20.20;29.93
65384;BME280;51986;52.788;41.368;2023-04-24T08:16:41;99559.38;;;20.76;28.83
65384;BME280;51986;52.788;41.368;2023-04-24T08:19:08;99546.00;;;20.67;29.27
65384;BME280;51986;52.788;41.368;2023-04-24T08:21:36;99575.56;;;20.82;29.20
65384;BME280;51986;52.788;41.368;2023-04-24T08:24:02;99548.88;;;20.55;29.03
65384;BME280;51986;52.788;41.368;2023-04-24T08:26:29;99525.44;;;20.73;29.70
65384;BME280;51986;52.788;41.368;2023-04-24T08:28:56;99549.03;;;20.51;29.80
65384;BME280;51986;52.788;41.368;2023-04-24T08:31:23;99563.13;;;20.61;29.72
65384;BME280;51986;52.788;41.368;2023-04-24T08:33:50;99554.13;;;20.82;29.67
65384;BME280;51986;52.788;41.368;2023-04-24T08:36:17;99549.63;;;20.88;29.29
65384;BME280;51986;52.788;41.368;2023-04-24T08:38:44;99557.25;;;20.81;28.80
65384;BME280;51986;52.788;41.368;2023-04-24T08:41:30;99547.59;;;21.07;28.50
65384;BME280;51986;52.788;41.368;2023-04-24T08:43:58;99524.22;;;21.46;28.52
65384;BME280;51986;52.788;41.368;2023-04-24T08:46:25;99542.47;;;21.57;28.30
65384;BME280;51986;52.788;41.368;2023-04-24T08:48:53;99518.78;;;21.70;28.39
65384;BME280;51986;52.788;41.368;2023-04-24T08:51:20;99529.16;;;21.77;28.28
65384;BME280;51986;52.788;41.368;2023-04-24T08:53:48;99510.25;;;21.57;27.77
65384;BME280;51986;52.788;41.368;2023-04-24T08:56:15;99527.41;;;22.04;28.04
65384;BME280;51986;52.788;41.368;2023-04-24T08:58:43;99492.97;;;22.17;27.88
65384;BME280;51986;52.788;41.368;2023-04-24T09:01:11;99481.75;;;21.45;28.48
65384;BME280;51986;52.788;41.368;2023-04-24T09:03:39;99497.50;;;20.89;28.43
65384;BME280;51986;52.788;41.368;2023-04-24T09:06:08;99507.69;;;21.00;28.68
65384;BME280;51986;52.788;41.368;2023-04-24T09:08:36;99498.09;;;21.08;28.71
65384;BME280;51986;52.788;41.368;2023-04-24T09:11:02;99484.19;;;21.34;29.12
65384;BME280;51986;52.788;41.368;2023-04-24T09:13:30;99479.72;;;21.69;27.81
65384;BME280;51986;52.788;41.368;2023-04-24T09:15:58;99488.03;;;21.57;27.83
65384;BME280;51986;52.788;41.368;2023-04-24T09:18:26;99504.88;;;21.87;26.59
65384;BME280;51986;52.788;41.368;2023-04-24T09:21:04;99499.13;;;21.49;27.07
65384;BME280;51986;52.788;41.368;2023-04-24T09:23:32;99500.81;;;21.62;27.40
65384;BME280;51986;52.788;41.368;2023-04-24T09:26:00;99462.16;;;20.91;27.56
65384;BME280;51986;52.788;41.368;2023-04-24T09:28:39;99520.06;;;20.73;27.91
65384;BME280;51986;52.788;41.368;2023-04-24T09:33:36;99489.56;;;20.71;28.91
65384;BME280;51986;52.788;41.368;2023-04-24T09:36:03;99482.69;;;21.18;27.72
65384;BME280;51986;52.788;41.368;2023-04-24T09:38:36;99486.44;;;21.11;27.20
65384;BME280;51986;52.788;41.368;2023-04-24T09:41:05;99451.34;;;20.61;27.99
65384;BME280;51986;52.788;41.368;2023-04-24T09:43:33;99493.88;;;20.35;29.13
65384;BME280;51986;52.788;41.368;2023-04-24T09:46:05;99475.84;;;20.02;29.89
65384;BME280;51986;52.788;41.368;2023-04-24T09:48:34;99478.25;;;19.91;30.60
65384;BME280;51986;52.788;41.368;2023-04-24T09:51:04;99497.94;;;19.42;31.70
65384;BME280;51986;52.788;41.368;2023-04-24T09:53:31;99490.63;;;19.52;31.68
65384;BME280;51986;52.788;41.368;2023-04-24T09:56:06;99495.06;;;20.34;31.18
65384;BME280;51986;52.788;41.368;2023-04-24T09:58:35;99476.38;;;20.49;28.28
65384;BME280;51986;52.788;41.368;2023-04-24T10:01:02;99487.97;;;20.22;29.19
65384;BME280;51986;52.788;41.368;2023-04-24T10:03:31;99499.25;;;20.35;28.67
65384;BME280;51986;52.788;41.368;2023-04-24T10:05:59;99482.50;;;20.49;27.82
65384;BME280;51986;52.788;41.368;2023-04-24T10:08:33;99484.72;;;20.51;27.79
65384;BME280;51986;52.788;41.368;2023-04-24T10:11:01;99466.91;;;20.96;27.64
65384;BME280;51986;52.788;41.368;2023-04-24T10:13:28;99447.22;;;20.51;28.32
65384;BME280;51986;52.788;41.368;2023-04-24T10:15:56;99456.69;;;20.28;29.07
65384;BME280;51986;52.788;41.368;2023-04-24T10:18:24;99455.47;;;19.96;29.86
65384;BME280;51986;52.788;41.368;2023-04-24T10:21:02;99447.31;;;19.90;30.21
65384;BME280;51986;52.788;41.368;2023-04-24T10:23:30;99452.50;;;20.03;29.59
65384;BME280;51986;52.788;41.368;2023-04-24T10:25:59;99443.81;;;20.74;29.27
65384;BME280;51986;52.788;41.368;2023-04-24T10:28:30;99463.13;;;21.02;29.26
65384;BME280;51986;52.788;41.368;2023-04-24T10:30:59;99452.94;;;21.31;28.51
65384;BME280;51986;52.788;41.368;2023-04-24T10:33:26;99420.81;;;21.21;28.39
65384;BME280;51986;52.788;41.368;2023-04-24T10:35:55;99420.19;;;20.88;28.27
65384;BME280;51986;52.788;41.368;2023-04-24T10:38:24;99417.22;;;20.86;28.33
65384;BME280;51986;52.788;41.368;2023-04-24T10:40:57;99431.94;;;20.66;28.22
65384;BME280;51986;52.788;41.368;2023-04-24T10:43:33;99424.03;;;20.39;28.60
65384;BME280;51986;52.788;41.368;2023-04-24T10:46:05;99403.72;;;19.99;29.17
65384;BME280;51986;52.788;41.368;2023-04-24T10:48:33;99444.47;;;20.03;29.37
65384;BME280;51986;52.788;41.368;2023-04-24T10:51:00;99428.47;;;19.85;28.89
65384;BME280;51986;52.788;41.368;2023-04-24T10:53:29;99446.56;;;19.99;28.81
65384;BME280;51986;52.788;41.368;2023-04-24T10:56:02;99427.44;;;20.15;28.95
65384;BME280;51986;52.788;41.368;2023-04-24T11:01:07;99430.06;;;20.24;28.88
65384;BME280;51986;52.788;41.368;2023-04-24T11:03:35;99427.59;;;20.45;29.12
65384;BME280;51986;52.788;41.368;2023-04-24T11:08:44;99443.56;;;20.06;29.07
65384;BME280;51986;52.788;41.368;2023-04-24T11:11:14;99427.53;;;20.30;30.31
65384;BME280;51986;52.788;41.368;2023-04-24T11:21:44;99410.44;;;19.94;27.37
65384;BME280;51986;52.788;41.368;2023-04-24T11:27:21;99418.59;;;20.57;27.84
65384;BME280;51986;52.788;41.368;2023-04-24T11:32:41;99418.56;;;20.33;28.99
65384;BME280;51986;52.788;41.368;2023-04-24T11:35:14;99407.50;;;20.16;28.29
65384;BME280;51986;52.788;41.368;2023-04-24T11:37:49;99422.72;;;20.01;28.47
65384;BME280;51986;52.788;41.368;2023-04-24T11:40:21;99394.13;;;20.16;28.12
65384;BME280;51986;52.788;41.368;2023-04-24T11:42:50;99410.16;;;20.25;28.46
65384;BME280;51986;52.788;41.368;2023-04-24T11:45:21;99400.22;;;20.41;28.54
65384;BME280;51986;52.788;41.368;2023-04-24T11:47:49;99384.59;;;20.39;28.77
65384;BME280;51986;52.788;41.368;2023-04-24T11:50:18;99378.41;;;20.33;28.45
65384;BME280;51986;52.788;41.368;2023-04-24T11:52:46;99395.88;;;20.19;27.01
65384;BME280;51986;52.788;41.368;2023-04-24T12:00:19;99386.38;;;20.42;28.14
65384;BME280;51986;52.788;41.368;2023-04-24T12:02:47;99397.66;;;19.89;28.96
65384;BME280;51986;52.788;41.368;2023-04-24T12:05:23;99390.09;;;19.88;29.15
65384;BME280;51986;52.788;41.368;2023-04-24T12:07:50;99381.34;;;19.69;29.38
65384;BME280;51986;52.788;41.368;2023-04-24T12:10:24;99362.25;;;19.34;29.75
65384;BME280;51986;52.788;41.368;2023-04-24T12:12:52;99392.41;;;19.43;30.48
65384;BME280;51986;52.788;41.368;2023-04-24T12:15:20;99377.78;;;19.11;29.71
65384;BME280;51986;52.788;41.368;2023-04-24T12:17:48;99353.78;;;19.44;29.29
65384;BME280;51986;52.788;41.368;2023-04-24T12:20:17;99390.28;;;19.57;29.60
65384;BME280;51986;52.788;41.368;2023-04-24T12:22:52;99371.38;;;19.69;28.45
65384;BME280;51986;52.788;41.368;2023-04-24T12:25:24;99388.09;;;19.55;27.94
65384;BME280;51986;52.788;41.368;2023-04-24T12:30:32;99343.25;;;19.41;27.79
65384;BME280;51986;52.788;41.368;2023-04-24T12:33:00;99401.41;;;19.83;28.26
65384;BME280;51986;52.788;41.368;2023-04-24T12:35:30;99394.88;;;19.74;28.59
65384;BME280;51986;52.788;41.368;2023-04-24T12:38:10;99381.25;;;19.54;28.80
65384;BME280;51986;52.788;41.368;2023-04-24T12:40:37;99378.16;;;19.46;29.67
65384;BME280;51986;52.788;41.368;2023-04-24T12:45:41;99360.50;;;19.21;29.38
65384;BME280;51986;52.788;41.368;2023-04-24T12:48:08;99364.91;;;19.52;29.30
65384;BME280;51986;52.788;41.368;2023-04-24T12:50:35;99380.97;;;19.34;28.78
65384;BME280;51986;52.788;41.368;2023-04-24T12:53:02;99386.63;;;19.36;29.40
65384;BME280;51986;52.788;41.368;2023-04-24T12:55:29;99374.19;;;18.68;34.01
65384;BME280;51986;52.788;41.368;2023-04-24T12:57:56;99401.31;;;18.67;34.69
65384;BME280;51986;52.788;41.368;2023-04-24T13:00:23;99379.50;;;18.50;34.49
65384;BME280;51986;52.788;41.368;2023-04-24T13:02:50;99397.72;;;18.42;35.44
65384;BME280;51986;52.788;41.368;2023-04-24T13:05:17;99394.19;;;18.45;34.19
65384;BME280;51986;52.788;41.368;2023-04-24T13:07:44;99391.03;;;18.29;34.05
65384;BME280;51986;52.788;41.368;2023-04-24T13:10:11;99373.56;;;18.46;33.96
65384;BME280;51986;52.788;41.368;2023-04-24T13:12:39;99382.34;;;18.06;34.15
65384;BME280;51986;52.788;41.368;2023-04-24T13:15:06;99395.38;;;18.04;34.24
65384;BME280;51986;52.788;41.368;2023-04-24T13:17:33;99379.56;;;18.10;34.86
65384;BME280;51986;52.788;41.368;2023-04-24T13:20:00;99397.41;;;17.60;36.02
65384;BME280;51986;52.788;41.368;2023-04-24T13:22:28;99437.84;;;17.58;37.45
65384;BME280;51986;52.788;41.368;2023-04-24T13:24:55;99416.63;;;17.77;38.82
65384;BME280;51986;52.788;41.368;2023-04-24T13:27:21;99413.59;;;17.43;39.52
65384;BME280;51986;52.788;41.368;2023-04-24T13:29:48;99383.16;;;17.32;40.33
65384;BME280;51986;52.788;41.368;2023-04-24T13:32:15;99401.63;;;17.26;39.86